Time;durP1;ratioP1;P1;durP2;ratioP2;P2;SDS_P1;SDS_P2;PMS_P1;PMS_P2;Temp;Humidity;BMP_temperature;BMP_pressure;BME280_temperature;BME280_humidity;BME280_pressure;Samples;Min_cycle;Max_cycle;Signal;HPM_P1;HPM_P2
2021/04/13 00:02:38;;;;;;;1.25;0.60;;;;;;;18.86;50.35;103178.75;4940081;29;20175;-77
2021/04/13 00:05:22;;;;;;;1.20;0.55;;;;;;;18.80;50.19;103162.84;4937356;29;20028;-78
2021/04/13 00:07:49;;;;;;;0.98;0.50;;;;;;;18.81;49.84;103164.63;4925685;29;20389;-78
2021/04/13 00:10:30;;;;;;;1.58;0.52;;;;;;;18.85;49.97;103173.44;4940380;29;20390;-77
2021/04/13 00:12:56;;;;;;;2.42;0.73;;;;;;;18.84;50.24;103171.66;4950054;29;20572;-77
2021/04/13 00:15:53;;;;;;;0.70;0.60;;;;;;;18.83;50.07;103165.53;4924343;29;20086;-78
2021/04/13 00:18:27;;;;;;;0.85;0.47;;;;;;;18.79;50.24;103163.69;4924504;29;20036;-77
2021/04/13 00:20:59;;;;;;;2.83;0.90;;;;;;;18.84;49.99;103172.56;4935551;29;20074;-77
2021/04/13 00:23:25;;;;;;;2.28;0.55;;;;;;;18.83;49.95;103170.78;4940794;29;20028;-78
2021/04/13 00:25:53;;;;;;;1.35;0.70;;;;;;;18.82;50.00;103160.28;4942137;29;20024;-77
2021/04/13 00:28:25;;;;;;;1.33;0.80;;;;;;;18.80;49.96;103168.09;4938170;29;20102;-77
2021/04/13 00:31:00;;;;;;;1.02;0.52;;;;;;;18.81;49.93;103176.84;4932851;29;20032;-77
2021/04/13 00:33:34;;;;;;;3.15;0.68;;;;;;;18.76;50.02;103167.94;4925034;29;20023;-78
2021/04/13 00:36:09;;;;;;;1.50;0.57;;;;;;;18.79;50.16;103174.16;4941889;29;20035;-78
2021/04/13 00:38:43;;;;;;;0.95;0.45;;;;;;;18.80;49.91;103175.06;4940513;29;20386;-77
2021/04/13 00:41:17;;;;;;;0.85;0.43;;;;;;;18.74;50.08;103172.22;4916774;29;20077;-78
2021/04/13 00:43:48;;;;;;;1.02;0.57;;;;;;;18.75;50.03;103172.28;4930750;29;20512;-78
2021/04/13 00:46:20;;;;;;;1.08;0.60;;;;;;;18.78;50.01;103176.72;4941928;29;20055;-78
2021/04/13 00:48:49;;;;;;;1.10;0.50;;;;;;;18.63;49.89;103155.28;4948097;29;20019;-78
2021/04/13 00:51:23;;;;;;;1.27;0.50;;;;;;;18.76;50.10;103171.44;4938656;29;20114;-78
2021/04/13 00:53:55;;;;;;;2.47;0.75;;;;;;;18.74;50.05;103169.59;4922496;29;19915;-77
2021/04/13 00:56:22;;;;;;;1.20;0.90;;;;;;;18.73;50.05;103166.09;4938489;29;20035;-78
2021/04/13 00:59:11;;;;;;;1.13;0.57;;;;;;;18.74;49.93;103173.13;4925604;29;20394;-78
2021/04/13 01:01:41;;;;;;;0.75;0.47;;;;;;;18.76;49.96;103176.69;4929349;29;20402;-78
2021/04/13 01:04:28;;;;;;;2.95;0.60;;;;;;;18.75;50.07;103169.66;4944318;29;20493;-78
2021/04/13 01:07:07;;;;;;;0.55;0.55;;;;;;;18.76;49.74;103173.16;4938866;29;20046;-78
2021/04/13 01:09:32;;;;;;;1.00;0.50;;;;;;;18.75;49.81;103174.91;4955306;29;20114;-78
2021/04/13 01:12:16;;;;;;;2.42;0.80;;;;;;;18.71;49.85;103172.13;4937422;29;20557;-78
2021/04/13 01:14:41;;;;;;;0.70;0.52;;;;;;;18.73;49.74;103167.81;4927777;29;20159;-77
2021/04/13 01:17:09;;;;;;;0.98;0.47;;;;;;;18.68;49.83;103161.56;4933691;29;20071;-78
2021/04/13 01:19:56;;;;;;;2.00;0.73;;;;;;;18.73;49.61;103170.44;4938047;29;20032;-77
2021/04/13 01:22:40;;;;;;;2.08;0.82;;;;;;;18.72;49.59;103166.94;4928812;29;20043;-79
2021/04/13 01:25:09;;;;;;;0.90;0.60;;;;;;;18.73;49.70;103173.06;4945642;29;20493;-78
2021/04/13 01:27:36;;;;;;;1.65;0.80;;;;;;;18.71;49.73;103170.41;4944282;29;20356;-78
2021/04/13 01:30:11;;;;;;;1.95;0.70;;;;;;;18.66;49.68;103166.75;4913913;29;20368;-77
2021/04/13 01:32:37;;;;;;;0.90;0.60;;;;;;;18.67;49.68;103165.94;4931729;29;20031;-77
2021/04/13 01:35:09;;;;;;;0.90;0.43;;;;;;;18.71;49.56;103172.13;4922522;29;20395;-77
2021/04/13 01:40:39;;;;;;;0.88;0.32;;;;;;;18.68;49.67;103169.44;4933989;29;20780;-78
2021/04/13 01:43:05;;;;;;;0.63;0.57;;;;;;;18.67;49.56;103165.03;4937767;29;20394;-77
2021/04/13 01:45:32;;;;;;;0.90;0.63;;;;;;;18.68;49.57;103175.56;4920673;29;20036;-78
2021/04/13 01:47:58;;;;;;;3.33;0.82;;;;;;;18.68;49.61;103175.56;4935222;29;20038;-78
2021/04/13 01:50:44;;;;;;;1.27;0.52;;;;;;;18.66;49.69;103169.38;4923920;29;20035;-77
2021/04/13 01:53:14;;;;;;;1.58;0.77;;;;;;;18.67;49.58;103175.53;4909508;29;20036;-78
2021/04/13 01:55:56;;;;;;;1.52;0.50;;;;;;;18.63;49.53;103174.53;4901494;29;20079;-77
2021/04/13 01:58:47;;;;;;;0.82;0.43;;;;;;;18.66;49.58;103178.97;4916846;29;20036;-78
2021/04/13 02:01:31;;;;;;;1.05;0.68;;;;;;;18.62;49.54;103170.13;4923791;29;20036;-78
2021/04/13 02:04:07;;;;;;;0.95;0.52;;;;;;;18.64;49.46;103178.94;4918309;29;20064;-77
2021/04/13 02:06:40;;;;;;;0.57;0.40;;;;;;;18.64;49.57;103184.16;4919120;29;20028;-78
2021/04/13 02:09:26;;;;;;;1.55;0.70;;;;;;;18.63;49.56;103182.38;4919018;29;20059;-78
2021/04/13 02:11:56;;;;;;;0.57;0.45;;;;;;;18.63;49.56;103185.00;4929658;29;20083;-78
2021/04/13 02:14:24;;;;;;;3.33;0.93;;;;;;;18.63;49.58;103184.13;4921496;29;20044;-77
2021/04/13 02:16:54;;;;;;;2.22;0.80;;;;;;;18.62;49.28;103195.44;4930008;29;20052;-78
2021/04/13 02:19:23;;;;;;;0.90;0.50;;;;;;;18.60;49.55;103198.00;4936952;29;20074;-78
2021/04/13 02:21:51;;;;;;;1.42;0.70;;;;;;;18.50;49.50;103178.44;4918824;29;20098;-77
2021/04/13 02:24:28;;;;;;;0.85;0.50;;;;;;;18.59;49.44;103198.84;4929253;29;20059;-78
2021/04/13 02:26:56;;;;;;;1.20;0.50;;;;;;;18.59;49.36;103196.22;4933274;29;20594;-77
2021/04/13 02:29:29;;;;;;;2.25;0.65;;;;;;;18.61;49.36;103198.91;4936557;29;20043;-78
2021/04/13 02:31:58;;;;;;;1.03;0.50;;;;;;;18.61;49.45;103205.03;4936411;29;20086;-78
2021/04/13 02:34:34;;;;;;;1.52;0.90;;;;;;;18.60;49.52;103205.88;4928421;29;20039;-77
2021/04/13 02:37:11;;;;;;;1.33;0.80;;;;;;;18.59;49.46;103201.47;4917782;29;20064;-78
2021/04/13 02:39:39;;;;;;;0.80;0.52;;;;;;;18.54;49.21;103193.44;4924997;29;20122;-77
2021/04/13 02:42:11;;;;;;;2.75;0.60;;;;;;;18.59;49.38;103204.09;4916596;29;20066;-77
2021/04/13 02:44:38;;;;;;;1.83;0.70;;;;;;;18.54;49.44;103197.78;4916734;29;20023;-78
2021/04/13 02:47:10;;;;;;;1.35;0.85;;;;;;;18.48;49.34;103187.09;4919477;29;20275;-77
2021/04/13 02:49:41;;;;;;;1.02;0.50;;;;;;;18.57;49.42;103204.00;4936385;29;20035;-77
2021/04/13 02:52:14;;;;;;;3.13;0.57;;;;;;;18.51;49.26;103200.31;4935424;29;20039;-78
2021/04/13 02:54:54;;;;;;;1.80;0.70;;;;;;;18.56;49.33;103204.84;4928659;29;20032;-77
2021/04/13 02:57:22;;;;;;;2.80;0.60;;;;;;;18.57;49.28;103208.34;4907559;29;20426;-77
2021/04/13 02:59:47;;;;;;;0.93;0.40;;;;;;;18.55;49.26;103204.81;4929827;29;20038;-78
2021/04/13 03:02:26;;;;;;;0.40;0.40;;;;;;;18.54;49.36;103200.41;4920253;29;20028;-78
2021/04/13 03:04:53;;;;;;;1.55;0.90;;;;;;;18.51;49.42;103200.31;4928670;29;20042;-77
2021/04/13 03:07:29;;;;;;;1.30;0.50;;;;;;;18.48;49.26;103194.97;4920574;29;20397;-78
2021/04/13 03:10:04;;;;;;;1.42;0.70;;;;;;;18.42;49.28;103186.91;4916440;29;20024;-78
2021/04/13 03:12:31;;;;;;;1.00;0.55;;;;;;;18.52;49.38;103205.59;4915444;29;20060;-78
2021/04/13 03:14:57;;;;;;;1.70;0.75;;;;;;;18.52;49.30;103205.59;4920754;29;20040;-77
2021/04/13 03:17:26;;;;;;;2.05;0.88;;;;;;;18.46;49.25;103192.28;4918700;29;20086;-78
2021/04/13 03:20:12;;;;;;;0.70;0.60;;;;;;;18.52;49.31;103210.84;4928571;29;20034;-78
2021/04/13 03:22:39;;;;;;;2.15;0.68;;;;;;;18.54;49.23;103208.28;4936487;29;20103;-78
2021/04/13 03:25:09;;;;;;;1.75;0.73;;;;;;;18.51;49.44;103200.31;4936435;29;20028;-77
2021/04/13 03:27:35;;;;;;;1.65;0.75;;;;;;;18.50;49.17;103199.41;4935593;29;20046;-78
2021/04/13 03:30:11;;;;;;;0.65;0.45;;;;;;;18.49;49.19;103191.50;4928760;29;20038;-77
2021/04/13 03:32:59;;;;;;;0.95;0.50;;;;;;;18.49;49.39;103202.88;4915959;29;20495;-77
2021/04/13 03:35:27;;;;;;;0.93;0.60;;;;;;;18.49;49.16;103200.25;4925461;29;20522;-77
2021/04/13 03:37:56;;;;;;;0.57;0.35;;;;;;;18.49;49.20;103209.84;4936189;29;20032;-76
2021/04/13 03:40:26;;;;;;;0.32;0.30;;;;;;;18.48;49.16;103198.47;4936063;29;20024;-77
2021/04/13 03:42:59;;;;;;;0.90;0.50;;;;;;;18.44;49.09;103196.59;4935654;29;20454;-78
2021/04/13 03:45:26;;;;;;;1.23;0.60;;;;;;;18.43;48.76;103191.31;4935971;29;20439;-78
2021/04/13 03:47:53;;;;;;;0.95;0.55;;;;;;;18.48;49.31;103210.69;4935969;29;20052;-78
2021/04/13 03:50:29;;;;;;;1.60;0.75;;;;;;;18.47;49.37;103207.16;4915175;29;20036;-77
2021/04/13 03:53:11;;;;;;;0.80;0.50;;;;;;;18.45;49.25;103203.59;4936120;29;20119;-77
2021/04/13 03:55:37;;;;;;;1.10;0.50;;;;;;;18.46;49.24;103204.50;4922828;29;20036;-78
2021/04/13 03:58:55;;;;;;;0.52;0.45;;;;;;;18.46;49.33;103207.13;4930937;29;20031;-78
2021/04/13 04:01:25;;;;;;;1.48;0.63;;;;;;;18.41;49.21;103196.50;4911486;29;20104;-77
2021/04/13 04:03:55;;;;;;;1.02;0.50;;;;;;;18.44;49.17;103204.44;4929069;29;20027;-78
2021/04/13 04:06:50;;;;;;;2.80;0.60;;;;;;;18.43;49.12;103201.81;4933216;29;20035;-77
2021/04/13 04:09:32;;;;;;;0.57;0.40;;;;;;;18.41;49.05;103203.47;4907353;29;20024;-78
2021/04/13 04:12:01;;;;;;;2.50;0.63;;;;;;;18.43;49.21;103209.66;4926883;29;20027;-77
2021/04/13 04:14:29;;;;;;;1.83;0.95;;;;;;;18.42;49.08;103206.16;4924251;29;20044;-69
2021/04/13 04:17:15;;;;;;;0.82;0.52;;;;;;;18.42;49.11;103211.38;4908514;29;20027;-68
2021/04/13 04:19:53;;;;;;;1.13;0.60;;;;;;;18.41;49.23;103214.84;4917761;29;20168;-69
2021/04/13 04:22:24;;;;;;;0.80;0.57;;;;;;;18.42;49.11;103215.75;4931527;29;20079;-69
2021/04/13 04:24:50;;;;;;;0.88;0.50;;;;;;;18.42;49.00;103224.50;4909661;29;20054;-69
2021/04/13 04:27:25;;;;;;;1.08;0.50;;;;;;;18.39;49.13;103213.91;4926333;29;20111;-66
2021/04/13 04:30:25;;;;;;;0.68;0.40;;;;;;;18.41;49.12;103216.56;4928217;29;20043;-69
2021/04/13 04:32:52;;;;;;;1.02;0.60;;;;;;;18.30;49.19;103204.84;4930308;29;20169;-69
2021/04/13 04:35:44;;;;;;;1.90;0.90;;;;;;;18.38;49.34;103226.94;4929568;29;20090;-72
2021/04/13 04:38:30;;;;;;;0.90;0.60;;;;;;;18.36;49.34;103224.28;4939667;29;20028;-67
2021/04/13 04:40:57;;;;;;;0.80;0.47;;;;;;;18.47;49.47;103233.38;4931702;29;20043;-68
2021/04/13 04:43:39;;;;;;;0.70;0.57;;;;;;;18.59;48.89;103235.53;4918881;29;20036;-68
2021/04/13 04:46:05;;;;;;;0.43;0.30;;;;;;;18.60;48.97;103233.81;4936102;29;20066;-68
2021/04/13 04:48:39;;;;;;;2.13;0.65;;;;;;;18.55;48.99;103231.91;4895034;29;20458;-67
2021/04/13 04:51:09;;;;;;;1.48;0.50;;;;;;;18.67;49.24;103241.94;4933615;29;20027;-76
2021/04/13 04:53:36;;;;;;;1.17;0.30;;;;;;;18.73;48.90;103241.22;4919658;29;20483;-74
2021/04/13 04:56:04;;;;;;;2.25;0.43;;;;;;;18.72;49.05;103244.69;4930415;29;20035;-75
2021/04/13 04:58:30;;;;;;;0.73;0.40;;;;;;;18.68;48.91;103238.47;4935250;29;20514;-74
2021/04/13 05:00:56;;;;;;;0.88;0.38;;;;;;;18.78;49.01;103242.28;4936807;29;20031;-72
2021/04/13 05:03:23;;;;;;;0.68;0.30;;;;;;;18.81;49.02;103247.63;4918075;29;20032;-74
2021/04/13 05:05:50;;;;;;;2.80;0.47;;;;;;;18.81;48.89;103250.25;4927480;29;20063;-74
2021/04/13 05:08:16;;;;;;;2.47;0.40;;;;;;;18.81;49.09;103252.84;4938311;29;20027;-74
2021/04/13 05:10:42;;;;;;;0.98;0.40;;;;;;;18.82;49.11;103255.53;4926628;29;20387;-74
2021/04/13 05:13:10;;;;;;;1.10;0.40;;;;;;;18.79;49.22;103252.81;4918013;29;20060;-75
2021/04/13 05:15:36;;;;;;;0.70;0.45;;;;;;;18.78;49.06;103256.25;4906808;29;20074;-74
2021/04/13 05:18:02;;;;;;;2.55;1.13;;;;;;;18.85;49.19;103255.59;4938665;29;20041;-74
2021/04/13 05:20:27;;;;;;;3.88;1.20;;;;;;;18.86;49.38;103265.25;4934367;29;20032;-67
2021/04/13 05:22:53;;;;;;;2.55;1.02;;;;;;;18.81;49.40;103261.63;4926190;29;20038;-67
2021/04/13 05:25:19;;;;;;;7.07;1.98;;;;;;;18.86;49.33;103273.13;4915316;29;20083;-68
2021/04/13 05:27:45;;;;;;;3.63;1.27;;;;;;;18.92;49.19;103265.47;4937257;29;20134;-66
2021/04/13 05:30:11;;;;;;;5.03;1.77;;;;;;;18.88;49.46;103267.94;4922358;29;20028;-72
2021/04/13 05:32:37;;;;;;;6.40;1.90;;;;;;;18.90;49.41;103282.88;4920797;29;20043;-69
2021/04/13 05:35:03;;;;;;;6.32;2.40;;;;;;;18.91;49.52;103271.53;4903386;29;20044;-77
2021/04/13 05:37:31;;;;;;;5.30;2.42;;;;;;;18.92;49.42;103275.06;4925507;29;20032;-78
2021/04/13 05:39:56;;;;;;;6.05;2.85;;;;;;;18.97;49.38;103289.19;4932130;29;20036;-77
2021/04/13 05:42:26;;;;;;;5.90;1.80;;;;;;;18.92;49.59;103285.53;4920106;29;20035;-77
2021/04/13 05:44:54;;;;;;;5.00;1.45;;;;;;;19.02;49.46;103291.97;4923566;29;20038;-78
2021/04/13 05:47:19;;;;;;;3.28;1.60;;;;;;;19.01;49.40;103296.31;4927161;29;20024;-77
2021/04/13 05:49:45;;;;;;;2.58;1.67;;;;;;;18.98;49.81;103295.31;4923654;29;20039;-78
2021/04/13 05:52:10;;;;;;;5.05;1.80;;;;;;;19.01;49.50;103300.66;4903012;29;20046;-77
2021/04/13 05:54:35;;;;;;;3.42;1.63;;;;;;;19.06;49.50;103302.63;4912133;29;20039;-77
2021/04/13 05:57:01;;;;;;;3.10;1.50;;;;;;;19.00;49.56;103305.03;4916197;29;20386;-77
2021/04/13 05:59:31;;;;;;;6.35;1.77;;;;;;;19.00;49.57;103301.50;4918405;29;20034;-77
2021/04/13 06:01:57;;;;;;;7.32;1.73;;;;;;;19.07;49.80;103306.13;4934525;29;20039;-77
2021/04/13 06:04:22;;;;;;;4.57;2.17;;;;;;;19.10;49.62;103314.06;4920330;29;20040;-77
2021/04/13 06:06:48;;;;;;;3.25;1.35;;;;;;;19.08;49.55;103318.41;4907895;29;20091;-77
2021/04/13 06:09:13;;;;;;;4.95;1.92;;;;;;;19.08;49.48;103319.28;4923883;29;20067;-74
2021/04/13 06:11:40;;;;;;;5.65;1.90;;;;;;;19.13;49.70;103319.41;4926128;29;20126;-73
2021/04/13 06:14:07;;;;;;;5.03;1.67;;;;;;;19.13;49.52;103316.78;4930553;29;20044;-76
2021/04/13 06:16:37;;;;;;;2.33;1.63;;;;;;;19.15;49.46;103325.59;4907927;29;20079;-77
2021/04/13 06:19:03;;;;;;;3.03;1.38;;;;;;;19.19;49.57;103328.38;4929839;29;20028;-75
2021/04/13 06:21:28;;;;;;;5.15;1.65;;;;;;;19.26;49.23;103330.34;4914032;29;20043;-76
2021/04/13 06:23:54;;;;;;;4.47;1.45;;;;;;;19.21;49.42;103328.44;4918439;29;20046;-76
2021/04/13 06:26:19;;;;;;;3.20;1.77;;;;;;;19.27;49.13;103336.47;4922510;29;20483;-76
2021/04/13 06:28:47;;;;;;;2.95;1.20;;;;;;;19.30;49.05;103336.59;4937969;29;20046;-76
2021/04/13 06:31:13;;;;;;;2.75;1.40;;;;;;;19.29;49.03;103326.94;4925592;29;20059;-76
2021/04/13 06:33:39;;;;;;;2.72;1.15;;;;;;;19.41;49.06;103342.16;4930669;29;20431;-77
2021/04/13 06:36:06;;;;;;;4.15;1.88;;;;;;;19.45;48.92;103331.81;4920575;29;20027;-70
2021/04/13 06:38:32;;;;;;;3.63;1.67;;;;;;;19.51;48.67;103331.13;4930218;29;20356;-70
2021/04/13 06:41:15;;;;;;;4.65;1.52;;;;;;;19.59;48.63;103337.50;4909340;29;20044;-70
2021/04/13 06:43:58;;;;;;;1.83;1.08;;;;;;;19.62;48.40;103338.47;4918981;29;20034;-70
2021/04/13 06:46:52;;;;;;;2.55;1.20;;;;;;;19.64;48.53;103343.78;4916403;29;20135;-70
2021/04/13 06:49:44;;;;;;;2.75;1.17;;;;;;;19.57;48.49;103353.22;4928189;29;20095;-70
2021/04/13 06:52:19;;;;;;;4.55;1.40;;;;;;;19.57;48.70;103349.69;4916584;29;20039;-70
2021/04/13 06:55:05;;;;;;;2.53;1.40;;;;;;;19.63;48.48;103349.88;4904001;29;20088;-70
2021/04/13 06:57:33;;;;;;;2.15;1.25;;;;;;;19.68;48.42;103355.25;4907001;29;20024;-70
2021/04/13 07:00:12;;;;;;;3.03;1.17;;;;;;;19.63;48.60;103358.63;4927247;29;20435;-70
2021/04/13 07:02:56;;;;;;;2.90;1.20;;;;;;;19.68;48.25;103342.13;4923101;29;20052;-70
2021/04/13 07:05:28;;;;;;;1.65;1.00;;;;;;;19.64;48.28;103359.53;4925476;29;20044;-70
2021/04/13 07:08:03;;;;;;;1.30;0.93;;;;;;;19.57;48.57;103358.47;4930068;29;20027;-68
2021/04/13 07:10:32;;;;;;;2.50;1.00;;;;;;;19.57;48.44;103353.22;4918251;29;20040;-70
2021/04/13 07:13:00;;;;;;;1.88;1.20;;;;;;;19.66;48.47;103362.19;4918568;29;20043;-68
2021/04/13 07:15:28;;;;;;;2.13;1.20;;;;;;;19.58;48.74;103362.88;4917596;29;20027;-68
2021/04/13 07:18:21;;;;;;;2.80;0.80;;;;;;;19.59;48.71;103362.03;4919954;29;20547;-70
2021/04/13 07:21:05;;;;;;;2.03;1.08;;;;;;;19.68;48.60;103373.66;4916799;29;20527;-68
2021/04/13 07:23:47;;;;;;;2.38;1.00;;;;;;;19.67;48.33;103363.97;4930407;29;20034;-68
2021/04/13 07:26:23;;;;;;;3.47;1.10;;;;;;;19.75;48.49;103373.84;4931182;29;20035;-68
2021/04/13 07:29:03;;;;;;;1.58;0.93;;;;;;;19.60;48.41;103337.53;4915456;29;20385;-68
2021/04/13 07:31:39;;;;;;;1.95;1.10;;;;;;;19.64;48.39;103370.03;4919173;29;20463;-69
2021/04/13 07:34:04;;;;;;;2.28;0.80;;;;;;;19.66;48.39;103372.69;4929097;29;20039;-68
2021/04/13 07:36:45;;;;;;;1.45;0.75;;;;;;;19.73;48.34;103374.69;4914516;29;20036;-69
2021/04/13 07:39:12;;;;;;;1.25;0.77;;;;;;;19.79;48.07;103381.00;4916878;29;20083;-68
2021/04/13 07:41:45;;;;;;;2.53;0.77;;;;;;;19.72;48.42;103372.91;4929063;29;20062;-68
2021/04/13 07:44:21;;;;;;;1.50;0.75;;;;;;;19.76;48.29;103369.50;4924512;29;20110;-68
2021/04/13 07:46:59;;;;;;;1.58;0.80;;;;;;;19.73;48.17;103374.69;4906117;29;20040;-69
2021/04/13 07:49:38;;;;;;;1.48;0.68;;;;;;;19.63;48.21;103357.75;4932404;29;20036;-68
2021/04/13 07:52:25;;;;;;;1.05;0.70;;;;;;;19.67;48.44;103363.97;4914055;29;20044;-68
2021/04/13 07:55:23;;;;;;;1.45;0.82;;;;;;;19.77;48.50;103382.66;4916999;29;20730;-69
2021/04/13 07:58:14;;;;;;;2.33;1.08;;;;;;;19.85;48.17;103382.91;4922326;29;20032;-68
2021/04/13 08:00:44;;;;;;;1.48;0.60;;;;;;;19.91;47.93;103378.72;4925501;29;20056;-68
2021/04/13 08:03:28;;;;;;;1.55;0.80;;;;;;;19.87;47.92;103371.59;4937431;29;20028;-68
2021/04/13 08:05:56;;;;;;;1.33;0.80;;;;;;;19.90;47.78;103376.06;4931150;29;20043;-68
2021/04/13 08:08:28;;;;;;;1.20;0.60;;;;;;;19.92;47.85;103384.88;4918179;29;20028;-68
2021/04/13 08:11:21;;;;;;;1.67;0.80;;;;;;;19.91;47.84;103390.97;4913416;29;20196;-68
2021/04/13 08:13:50;;;;;;;1.85;1.40;;;;;;;19.91;47.89;103383.09;4904477;29;20207;-70
2021/04/13 08:16:30;;;;;;;1.08;0.88;;;;;;;19.86;47.94;103382.94;4931447;29;20028;-68
2021/04/13 08:19:12;;;;;;;0.77;0.50;;;;;;;19.81;47.90;103386.28;4910295;29;20032;-70
2021/04/13 08:21:37;;;;;;;1.48;0.52;;;;;;;19.79;47.86;103393.22;4925277;29;20453;-68
2021/04/13 08:24:03;;;;;;;1.63;0.75;;;;;;;19.81;47.80;103386.28;4910168;29;20127;-68
2021/04/13 08:26:44;;;;;;;1.23;0.70;;;;;;;19.80;47.72;103395.91;4907564;29;20415;-68
2021/04/13 08:29:40;;;;;;;1.00;0.80;;;;;;;19.82;47.71;103390.69;4928725;29;20036;-75
2021/04/13 08:35:26;;;;;;;1.33;0.60;;;;;;;19.80;47.44;103398.53;4930219;29;20099;-76
2021/04/13 08:38:12;;;;;;;0.88;0.60;;;;;;;19.78;47.65;103396.69;4929012;29;20028;-76
2021/04/13 08:41:07;;;;;;;4.95;1.23;;;;;;;19.76;47.54;103401.00;4929171;29;20479;-70
2021/04/13 08:44:01;;;;;;;2.03;0.95;;;;;;;19.78;47.62;103408.09;4924549;29;20071;-70
2021/04/13 08:46:47;;;;;;;1.63;1.20;;;;;;;19.79;47.55;103408.97;4925789;29;20047;-70
2021/04/13 08:49:25;;;;;;;0.93;0.65;;;;;;;19.77;47.62;103393.19;4919946;29;20032;-70
2021/04/13 08:52:19;;;;;;;2.03;0.70;;;;;;;19.77;47.74;103401.06;4923168;29;20032;-68
2021/04/13 08:54:48;;;;;;;0.75;0.50;;;;;;;19.79;47.71;103406.34;4912255;29;20024;-70
2021/04/13 08:57:31;;;;;;;1.02;0.70;;;;;;;19.76;47.57;103408.88;4923463;29;20030;-70
2021/04/13 08:59:59;;;;;;;2.08;0.60;;;;;;;19.72;47.62;103401.78;4919042;29;20047;-70
2021/04/13 09:02:33;;;;;;;0.68;0.63;;;;;;;19.77;47.76;103413.28;4931418;29;20032;-70
2021/04/13 09:05:19;;;;;;;0.98;0.88;;;;;;;19.74;47.60;103402.69;4935436;29;20028;-68
2021/04/13 09:07:47;;;;;;;0.75;0.60;;;;;;;19.75;47.47;103401.84;4934320;29;20067;-70
2021/04/13 09:10:31;;;;;;;1.25;0.90;;;;;;;19.69;47.65;103405.19;4921558;29;20356;-69
2021/04/13 09:13:26;;;;;;;1.83;0.80;;;;;;;19.69;47.78;103402.56;4913335;29;20118;-70
2021/04/13 09:16:07;;;;;;;2.10;0.70;;;;;;;19.70;47.69;103404.34;4932960;29;20454;-69
2021/04/13 09:18:44;;;;;;;1.60;0.70;;;;;;;19.64;47.76;103409.41;4934346;29;20034;-69
2021/04/13 09:21:23;;;;;;;1.60;0.70;;;;;;;19.60;47.79;103405.78;4919197;29;20042;-69
2021/04/13 09:24:01;;;;;;;1.15;0.70;;;;;;;19.65;48.08;103397.16;4932648;29;20028;-68
2021/04/13 09:26:47;;;;;;;1.40;0.80;;;;;;;19.60;47.85;103404.91;4935099;29;20039;-70
2021/04/13 09:29:31;;;;;;;1.40;0.50;;;;;;;19.56;47.81;103405.66;4928871;29;20032;-69
2021/04/13 09:31:58;;;;;;;1.42;0.68;;;;;;;19.52;47.88;103402.03;4927001;29;20039;-69
2021/04/13 09:34:48;;;;;;;1.20;0.57;;;;;;;19.60;47.75;103407.53;4926913;29;20126;-69
2021/04/13 09:37:23;;;;;;;2.22;0.63;;;;;;;19.57;47.75;103403.09;4922398;29;20031;-70
2021/04/13 09:40:16;;;;;;;1.60;0.77;;;;;;;19.61;47.61;103412.81;4927633;29;20039;-70
2021/04/13 09:43:18;;;;;;;0.85;0.68;;;;;;;19.60;47.76;103415.41;4928656;29;20031;-70
2021/04/13 09:45:56;;;;;;;1.27;0.82;;;;;;;19.51;47.88;103404.63;4931518;29;20026;-70
2021/04/13 09:48:52;;;;;;;2.85;0.80;;;;;;;19.56;47.65;103414.44;4912985;29;20028;-70
2021/04/13 09:51:36;;;;;;;0.93;0.65;;;;;;;19.55;47.67;103410.00;4917585;29;20120;-70
2021/04/13 09:54:19;;;;;;;1.08;0.55;;;;;;;19.56;47.68;103413.53;4925487;29;20466;-70
2021/04/13 09:57:09;;;;;;;0.90;0.40;;;;;;;19.54;47.68;103413.47;4931741;29;20042;-70
2021/04/13 09:59:59;;;;;;;0.68;0.52;;;;;;;19.44;47.78;103393.00;4926049;29;20020;-70
2021/04/13 10:02:56;;;;;;;1.30;0.63;;;;;;;19.47;47.60;103408.88;4929775;29;20023;-70
2021/04/13 10:05:35;;;;;;;1.85;0.50;;;;;;;19.44;47.88;103413.13;4927005;29;20024;-70
2021/04/13 10:08:15;;;;;;;1.00;0.43;;;;;;;19.49;47.72;103406.28;4934181;29;20430;-70
2021/04/13 10:11:11;;;;;;;0.60;0.50;;;;;;;19.49;47.76;103407.19;4933665;29;20410;-69
2021/04/13 10:13:49;;;;;;;1.73;0.90;;;;;;;19.50;47.69;103408.06;4921201;29;20048;-69
2021/04/13 10:16:32;;;;;;;1.35;0.60;;;;;;;19.49;47.80;103406.28;4926362;29;20035;-69
2021/04/13 10:19:07;;;;;;;1.80;0.98;;;;;;;19.44;47.67;103393.00;4933757;29;20034;-69
2021/04/13 10:22:10;;;;;;;0.95;0.63;;;;;;;19.47;47.63;103403.63;4922809;29;20042;-69
2021/04/13 10:24:42;;;;;;;0.70;0.50;;;;;;;19.47;47.64;103411.50;4927268;29;20036;-69
2021/04/13 10:27:19;;;;;;;1.48;0.80;;;;;;;19.43;47.70;103396.47;4928539;29;20032;-69
2021/04/13 10:29:50;;;;;;;1.83;1.13;;;;;;;19.45;47.62;103402.66;4926055;29;20036;-69
2021/04/13 10:32:23;;;;;;;2.40;0.75;;;;;;;19.43;47.89;103399.09;4909936;29;20059;-70
2021/04/13 10:35:00;;;;;;;0.52;0.40;;;;;;;19.47;47.70;103397.47;4925436;29;20036;-68
2021/04/13 10:38:02;;;;;;;1.13;0.60;;;;;;;19.46;47.86;103399.22;4931041;29;20031;-69
2021/04/13 10:40:46;;;;;;;1.33;0.60;;;;;;;19.46;47.80;103393.97;4928236;29;20032;-68
2021/04/13 10:43:47;;;;;;;4.18;1.30;;;;;;;19.46;47.85;103393.97;4917433;29;20114;-69
2021/04/13 10:46:41;;;;;;;1.70;0.73;;;;;;;19.43;47.68;103387.72;4923172;29;20050;-68
2021/04/13 10:49:40;;;;;;;1.55;0.75;;;;;;;19.45;48.01;103392.16;4927640;29;20035;-69
2021/04/13 10:52:08;;;;;;;0.95;0.70;;;;;;;19.40;48.08;103404.25;4926383;29;20127;-69
2021/04/13 10:54:51;;;;;;;1.13;0.70;;;;;;;19.36;48.43;103394.47;4918700;29;20036;-70
2021/04/13 10:57:20;;;;;;;1.98;0.82;;;;;;;19.40;48.27;103401.63;4922009;29;20543;-70
2021/04/13 11:00:06;;;;;;;1.60;0.73;;;;;;;19.43;48.19;103395.59;4917850;29;20028;-69
2021/04/13 11:02:59;;;;;;;0.60;0.60;;;;;;;19.46;48.39;103399.22;4922850;29;20028;-67
2021/04/13 11:05:41;;;;;;;2.78;0.70;;;;;;;19.45;48.27;103399.16;4914751;29;20451;-71
2021/04/13 11:08:48;;;;;;;1.00;0.50;;;;;;;19.46;48.34;103396.59;4902846;29;20432;-70
2021/04/13 11:11:19;;;;;;;2.42;0.85;;;;;;;19.45;48.31;103397.41;4923644;29;20066;-75
2021/04/13 11:14:05;;;;;;;3.85;0.80;;;;;;;19.44;48.85;103395.63;4925689;29;20054;-75
2021/04/13 11:16:33;;;;;;;2.47;0.60;;;;;;;19.44;48.51;103390.38;4905123;29;20106;-75
2021/04/13 11:19:24;;;;;;;2.83;0.93;;;;;;;19.45;48.73;103393.91;4933633;29;20107;-69
2021/04/13 11:22:05;;;;;;;1.13;0.57;;;;;;;19.44;48.67;103387.75;4905936;29;20036;-69
2021/04/13 11:24:52;;;;;;;2.97;0.80;;;;;;;19.44;48.58;103393.00;4921956;29;20042;-74
2021/04/13 11:27:36;;;;;;;1.17;0.65;;;;;;;19.46;48.71;103395.69;4912915;29;20040;-70
2021/04/13 11:30:15;;;;;;;2.58;1.08;;;;;;;19.39;48.85;103391.06;4901599;29;20039;-69
2021/04/13 11:33:13;;;;;;;1.17;0.50;;;;;;;19.42;48.60;103389.44;4934332;29;20055;-69
2021/04/13 11:35:43;;;;;;;2.00;0.52;;;;;;;19.43;48.67;103382.47;4931663;29;20118;-69
2021/04/13 11:38:20;;;;;;;1.27;0.70;;;;;;;19.43;48.92;103380.72;4930085;29;20093;-69
2021/04/13 11:41:01;;;;;;;1.60;0.82;;;;;;;19.43;48.47;103385.97;4909913;29;20028;-69
2021/04/13 11:43:32;;;;;;;2.05;0.95;;;;;;;19.40;48.53;103377.13;4934035;29;20035;-69
2021/04/13 11:46:15;;;;;;;3.25;0.52;;;;;;;19.43;48.67;103374.59;4922531;29;20546;-75
2021/04/13 11:48:59;;;;;;;1.00;0.60;;;;;;;19.43;48.49;103369.34;4925091;29;20036;-75
2021/04/13 11:51:27;;;;;;;0.93;0.60;;;;;;;19.42;48.59;103378.94;4916793;29;20167;-75
2021/04/13 11:53:53;;;;;;;0.98;0.50;;;;;;;19.42;48.52;103384.19;4909354;29;20039;-75
2021/04/13 11:56:21;;;;;;;1.73;0.73;;;;;;;19.42;48.60;103378.06;4923386;29;20019;-75
2021/04/13 11:59:16;;;;;;;2.15;0.70;;;;;;;19.40;48.49;103383.25;4910385;29;20091;-75
2021/04/13 12:01:46;;;;;;;1.63;0.80;;;;;;;19.39;48.62;103375.31;4920474;29;20028;-75
2021/04/13 12:04:15;;;;;;;0.98;0.60;;;;;;;19.36;48.63;103376.13;4917137;29;20387;-74
2021/04/13 12:07:01;;;;;;;4.80;1.13;;;;;;;19.41;48.69;103373.66;4923162;29;20035;-75
2021/04/13 12:09:48;;;;;;;1.30;0.60;;;;;;;19.42;48.80;103370.19;4925625;29;20020;-75
2021/04/13 12:12:34;;;;;;;1.50;0.77;;;;;;;19.42;48.63;103368.44;4930828;29;20062;-75